Time;durP1;ratioP1;P1;durP2;ratioP2;P2;SDS_P1;SDS_P2;PMS_P1;PMS_P2;Temp;Humidity;BMP_temperature;BMP_pressure;BME280_temperature;BME280_humidity;BME280_pressure;Samples;Min_cycle;Max_cycle;Signal;HPM_P1;HPM_P2
2023/10/21 00:02:04;;;;;;;0.40;0.17;;;;;;;15.45;80.50;149959.97;4986853;28;20235;-59
2023/10/21 00:04:31;;;;;;;1.27;0.30;;;;;;;15.48;79.92;149968.75;4986355;28;20217;-59
2023/10/21 00:06:58;;;;;;;0.10;0.10;;;;;;;15.47;80.38;149964.97;4984320;28;20224;-58
2023/10/21 00:09:24;;;;;;;3.40;0.23;;;;;;;15.47;79.97;149966.25;4987014;28;20226;-57
2023/10/21 00:11:52;;;;;;;0.10;0.10;;;;;;;15.46;82.08;149962.47;4984190;28;20235;-59
2023/10/21 00:14:19;;;;;;;0.23;0.10;;;;;;;15.37;82.24;149941.28;4986648;28;20246;-59
2023/10/21 00:16:46;;;;;;;1.70;0.20;;;;;;;15.49;80.32;149971.25;4983407;28;20227;-57
2023/10/21 00:19:12;;;;;;;0.43;0.20;;;;;;;15.54;80.12;149982.47;4985907;28;20570;-58
2023/10/21 00:21:40;;;;;;;0.73;0.13;;;;;;;15.55;79.75;149984.97;4983925;28;20218;-59
2023/10/21 00:24:07;;;;;;;0.97;0.20;;;;;;;15.58;79.35;149992.47;4986665;28;20227;-59
2023/10/21 00:26:44;;;;;;;0.53;0.20;;;;;;;15.59;80.21;149993.75;4982870;28;21232;-59
2023/10/21 00:29:12;;;;;;;1.77;0.20;;;;;;;15.60;79.76;149997.47;4984509;28;20289;-58
2023/10/21 00:31:39;;;;;;;1.97;0.30;;;;;;;15.49;82.27;149969.97;4998050;28;20224;-59
2023/10/21 00:34:05;;;;;;;0.87;0.20;;;;;;;15.30;85.49;149925.03;5000755;28;20233;-59
2023/10/21 00:36:32;;;;;;;0.40;0.20;;;;;;;15.09;89.89;149873.81;5000663;28;20281;-59
2023/10/21 00:38:59;;;;;;;1.03;0.40;;;;;;;15.08;88.25;149871.31;4981130;28;20230;-58
2023/10/21 00:41:25;;;;;;;0.40;0.10;;;;;;;15.11;87.37;149877.56;4984438;28;20226;-58
2023/10/21 00:43:52;;;;;;;1.53;0.20;;;;;;;15.05;86.82;149865.09;4998187;28;20225;-59
2023/10/21 00:46:22;;;;;;;0.20;0.10;;;;;;;15.11;85.90;149877.56;4999730;28;20233;-59
2023/10/21 00:48:50;;;;;;;0.37;0.30;;;;;;;15.01;87.61;149853.81;4997363;28;20285;-59
2023/10/21 00:51:17;;;;;;;0.90;0.20;;;;;;;15.03;86.40;149860.09;5000751;28;20287;-58
2023/10/21 00:53:44;;;;;;;1.13;0.30;;;;;;;15.00;86.55;149852.59;4997188;28;20230;-58
2023/10/21 00:56:10;;;;;;;0.20;0.10;;;;;;;15.03;86.30;149860.09;4985927;28;20222;-58
2023/10/21 00:58:37;;;;;;;2.90;0.23;;;;;;;15.02;86.52;149857.59;4983161;28;20233;-59
2023/10/21 01:01:07;;;;;;;0.20;0.17;;;;;;;15.01;86.90;149853.81;4985764;28;20597;-59
2023/10/21 01:03:35;;;;;;;0.60;0.30;;;;;;;15.05;86.31;149865.09;4983387;28;20226;-59
2023/10/21 01:06:03;;;;;;;0.60;0.20;;;;;;;15.09;86.01;149873.81;4985088;28;20225;-59
2023/10/21 01:08:30;;;;;;;0.23;0.10;;;;;;;15.15;84.92;149887.56;4985324;28;20598;-59
2023/10/21 01:10:58;;;;;;;1.40;0.20;;;;;;;15.12;85.75;149881.31;4982675;28;20242;-59
2023/10/21 01:13:24;;;;;;;0.27;0.10;;;;;;;15.14;85.36;149886.31;4985605;28;20627;-59
2023/10/21 01:15:51;;;;;;;0.77;0.20;;;;;;;15.18;83.63;149896.28;4981115;28;20220;-58
2023/10/21 01:18:18;;;;;;;0.20;0.20;;;;;;;15.21;84.00;149902.56;4999757;28;20236;-59
2023/10/21 01:20:45;;;;;;;4.93;0.50;;;;;;;15.27;83.76;149916.28;4989083;28;20268;-58
2023/10/21 01:23:15;;;;;;;3.07;0.30;;;;;;;15.16;86.75;149891.28;4983476;28;20237;-59
2023/10/21 01:25:42;;;;;;;1.80;0.20;;;;;;;15.15;85.58;149888.78;4983131;28;20223;-59
2023/10/21 01:28:10;;;;;;;0.20;0.20;;;;;;;15.13;85.12;149883.81;5000234;28;20301;-57
2023/10/21 01:30:36;;;;;;;0.70;0.10;;;;;;;15.11;85.07;149878.81;4982212;28;20227;-59
2023/10/21 01:33:04;;;;;;;1.13;0.40;;;;;;;15.13;85.38;149883.81;4999932;28;20241;-59
2023/10/21 01:35:30;;;;;;;1.50;0.20;;;;;;;15.14;84.74;149886.31;5000306;28;20256;-59
2023/10/21 01:37:57;;;;;;;2.57;0.40;;;;;;;15.14;84.42;149886.31;4995966;28;20246;-59
2023/10/21 01:40:25;;;;;;;0.50;0.20;;;;;;;15.17;84.23;149893.78;4999922;28;20233;-59
2023/10/21 01:42:53;;;;;;;0.57;0.20;;;;;;;15.13;84.26;149882.56;4995018;28;20637;-59
2023/10/21 01:45:20;;;;;;;0.20;0.10;;;;;;;15.10;84.72;149875.06;4998450;28;20226;-58
2023/10/21 01:47:52;;;;;;;1.03;0.20;;;;;;;15.07;84.85;149867.59;4993879;28;20555;-58
2023/10/21 01:50:18;;;;;;;1.00;0.17;;;;;;;15.01;85.15;149855.09;4998592;28;20230;-58
2023/10/21 01:52:46;;;;;;;2.10;0.27;;;;;;;14.94;85.86;149837.59;4981385;28;20225;-59
2023/10/21 01:55:13;;;;;;;0.60;0.10;;;;;;;14.95;85.46;149838.81;4981688;28;20226;-58
2023/10/21 01:57:41;;;;;;;1.80;0.20;;;;;;;14.82;86.24;149808.91;4996292;28;20215;-57
2023/10/21 02:00:09;;;;;;;1.13;0.20;;;;;;;14.86;85.93;149818.84;4982233;28;20237;-60
2023/10/21 02:02:40;;;;;;;2.10;0.30;;;;;;;14.74;86.66;149790.16;4995942;28;20697;-59
2023/10/21 02:05:07;;;;;;;0.43;0.10;;;;;;;14.83;86.20;149810.13;4997117;28;20730;-58
2023/10/21 02:07:36;;;;;;;2.63;0.20;;;;;;;14.85;86.47;149815.13;4995225;28;20228;-60
2023/10/21 02:10:06;;;;;;;1.37;0.30;;;;;;;14.99;84.45;149848.81;4985028;28;20237;-57
2023/10/21 02:12:33;;;;;;;2.87;0.20;;;;;;;14.92;85.57;149832.63;4979287;28;20244;-57
2023/10/21 02:15:01;;;;;;;0.30;0.20;;;;;;;14.96;84.83;149842.59;4994949;28;20241;-59
2023/10/21 02:17:28;;;;;;;0.43;0.20;;;;;;;15.02;84.04;149856.31;4999451;28;20230;-59
2023/10/21 02:19:56;;;;;;;0.20;0.10;;;;;;;15.02;84.57;149857.59;4996704;28;20258;-58
2023/10/21 02:22:23;;;;;;;0.93;0.20;;;;;;;15.03;83.36;149858.81;4997649;28;20225;-58
2023/10/21 02:24:49;;;;;;;0.10;0.10;;;;;;;15.05;83.62;149865.09;4995865;28;20218;-57
2023/10/21 02:27:16;;;;;;;0.53;0.23;;;;;;;15.02;84.65;149856.31;4998828;28;20241;-58
2023/10/21 02:29:43;;;;;;;1.90;0.30;;;;;;;15.04;82.91;149861.31;4979534;28;20708;-58
2023/10/21 02:32:11;;;;;;;0.77;0.30;;;;;;;14.97;83.67;149845.09;4982608;28;20248;-59
2023/10/21 02:34:37;;;;;;;0.20;0.20;;;;;;;14.98;84.79;149846.31;4995981;28;20697;-59
2023/10/21 02:37:04;;;;;;;1.73;0.20;;;;;;;14.94;85.07;149836.34;4998882;28;20224;-59
2023/10/21 02:39:30;;;;;;;0.67;0.13;;;;;;;14.88;85.67;149822.63;4999244;28;20341;-59
2023/10/21 02:41:57;;;;;;;0.30;0.13;;;;;;;14.85;85.44;149815.13;4997148;28;20239;-59
2023/10/21 02:44:24;;;;;;;0.50;0.20;;;;;;;14.86;85.58;149817.63;5002998;28;20308;-59
2023/10/21 02:46:51;;;;;;;0.33;0.17;;;;;;;14.86;86.28;149818.84;5000148;28;20257;-59
2023/10/21 02:49:18;;;;;;;2.90;0.20;;;;;;;14.83;86.02;149811.41;5003127;28;20235;-57
2023/10/21 02:51:45;;;;;;;1.10;0.10;;;;;;;14.94;84.14;149836.34;4985494;28;20245;-57
2023/10/21 02:54:12;;;;;;;0.40;0.20;;;;;;;14.95;83.48;149840.09;5002918;28;20228;-59
2023/10/21 02:56:41;;;;;;;0.10;0.10;;;;;;;14.93;82.81;149835.09;4984294;28;20229;-59
2023/10/21 02:59:08;;;;;;;0.20;0.13;;;;;;;14.92;83.04;149832.63;4986933;28;20231;-59
2023/10/21 03:01:34;;;;;;;1.17;0.20;;;;;;;14.93;83.49;149833.84;4984072;28;20270;-59
2023/10/21 03:04:01;;;;;;;1.80;0.30;;;;;;;14.97;81.88;149843.81;5002302;28;20239;-59
2023/10/21 03:06:29;;;;;;;1.50;0.50;;;;;;;14.97;82.36;149845.09;5003114;28;20238;-59
2023/10/21 03:08:55;;;;;;;0.43;0.37;;;;;;;14.96;82.22;149841.31;5000623;28;20239;-57
2023/10/21 03:11:24;;;;;;;0.60;0.10;;;;;;;14.95;83.23;149838.81;5003085;28;20233;-59
2023/10/21 03:13:51;;;;;;;0.13;0.10;;;;;;;14.92;82.31;149832.63;4982670;28;20324;-59
2023/10/21 03:16:17;;;;;;;1.27;0.30;;;;;;;14.88;82.84;149823.84;4987003;28;20267;-58
2023/10/21 03:18:45;;;;;;;0.10;0.10;;;;;;;14.89;82.30;149826.34;4985963;28;20585;-58
2023/10/21 03:21:14;;;;;;;0.23;0.20;;;;;;;14.90;81.87;149828.84;4988547;28;20232;-57
2023/10/21 03:23:42;;;;;;;0.77;0.30;;;;;;;14.91;81.52;149831.34;5000205;28;20219;-58
2023/10/21 03:26:08;;;;;;;0.67;0.10;;;;;;;14.92;81.30;149832.63;4988423;28;20236;-58
2023/10/21 03:28:36;;;;;;;0.93;0.20;;;;;;;14.95;81.12;149840.09;5000043;28;20688;-57
2023/10/21 03:31:04;;;;;;;0.50;0.20;;;;;;;14.95;81.99;149838.81;5232709;22;20243;-60
2023/10/21 03:33:32;;;;;;;0.27;0.20;;;;;;;14.90;81.96;149827.63;5015911;28;20687;-62
2023/10/21 03:36:00;;;;;;;0.53;0.17;;;;;;;14.87;82.59;149820.13;4997046;28;20237;-62
2023/10/21 03:38:27;;;;;;;0.10;0.10;;;;;;;14.85;83.75;149816.34;5005707;28;20224;-62
2023/10/21 03:41:00;;;;;;;1.50;0.20;;;;;;;14.83;83.58;149810.13;4998686;28;20242;-61
2023/10/21 03:43:27;;;;;;;0.63;0.40;;;;;;;14.84;84.57;149812.63;5004113;28;20230;-62
2023/10/21 03:45:54;;;;;;;1.57;0.30;;;;;;;14.72;86.43;149783.94;4995231;28;23680;-62
2023/10/21 03:48:21;;;;;;;0.90;0.30;;;;;;;14.67;88.28;149772.63;5000658;28;20209;-62
2023/10/21 03:50:48;;;;;;;2.20;0.40;;;;;;;14.61;89.13;149757.63;4992832;28;20217;-62
2023/10/21 03:53:14;;;;;;;3.67;0.40;;;;;;;14.59;88.48;149753.91;5005447;28;20236;-60
2023/10/21 03:55:41;;;;;;;2.00;0.40;;;;;;;14.56;88.93;149746.41;4999720;28;20221;-60
2023/10/21 03:58:10;;;;;;;0.53;0.30;;;;;;;14.50;90.68;149730.16;5000843;28;20244;-60
2023/10/21 04:00:37;;;;;;;1.97;0.20;;;;;;;14.43;91.52;149713.94;4999880;28;20225;-61
2023/10/21 04:03:04;;;;;;;1.70;0.30;;;;;;;14.42;91.16;149712.69;4998650;28;20225;-60
2023/10/21 04:05:31;;;;;;;0.53;0.30;;;;;;;14.40;90.91;149707.69;4995744;28;20237;-60
2023/10/21 04:07:58;;;;;;;1.10;0.40;;;;;;;14.42;92.16;149711.44;4991196;28;20226;-60
2023/10/21 04:10:25;;;;;;;0.30;0.30;;;;;;;14.41;92.90;149708.94;5000119;28;20217;-61
2023/10/21 04:12:52;;;;;;;0.73;0.30;;;;;;;14.39;92.09;149703.97;4996208;28;20229;-62
2023/10/21 04:15:20;;;;;;;0.57;0.30;;;;;;;14.40;93.61;149706.47;5000742;28;20711;-61
2023/10/21 04:17:52;;;;;;;1.13;0.23;;;;;;;14.42;92.38;149712.69;4994067;28;20230;-61
2023/10/21 04:20:19;;;;;;;1.00;0.30;;;;;;;14.41;92.19;149708.94;5004853;28;20294;-61
2023/10/21 04:22:45;;;;;;;1.27;0.30;;;;;;;14.42;92.61;149712.69;5000418;28;20237;-61
2023/10/21 04:25:12;;;;;;;0.93;0.37;;;;;;;14.39;93.15;149703.97;4999398;28;20228;-61
2023/10/21 04:27:39;;;;;;;1.03;0.30;;;;;;;14.41;93.84;149710.19;4993526;28;20256;-61
2023/10/21 04:30:07;;;;;;;1.30;0.33;;;;;;;14.39;93.82;149703.97;4998581;28;20232;-61
2023/10/21 04:32:36;;;;;;;1.20;0.33;;;;;;;14.31;93.60;149686.47;4994964;28;20629;-61
2023/10/21 04:35:04;;;;;;;0.80;0.30;;;;;;;14.23;94.54;149665.28;4996973;28;20241;-61
2023/10/21 04:37:30;;;;;;;1.60;0.57;;;;;;;14.20;95.47;149659.00;5001501;28;20227;-61
2023/10/21 04:39:57;;;;;;;0.50;0.20;;;;;;;14.07;96.22;149627.81;4997540;28;20225;-61
2023/10/21 04:42:24;;;;;;;0.50;0.20;;;;;;;14.08;96.21;149629.03;4999213;28;20681;-61
2023/10/21 04:44:51;;;;;;;1.10;0.20;;;;;;;13.92;97.83;149591.59;4995301;28;20688;-61
2023/10/21 04:47:18;;;;;;;1.95;0.40;;;;;;;13.88;97.64;149582.88;4996429;28;20440;-61
2023/10/21 04:49:46;;;;;;;0.30;0.20;;;;;;;14.03;97.25;149617.84;4997744;28;20241;-61
2023/10/21 04:52:14;;;;;;;1.53;0.20;;;;;;;14.07;96.09;149626.56;5000926;28;20622;-60
2023/10/21 04:54:42;;;;;;;1.50;0.30;;;;;;;13.98;97.31;149605.34;4998771;28;20728;-61
2023/10/21 04:57:09;;;;;;;0.50;0.20;;;;;;;14.02;96.51;149616.56;5003230;28;20257;-61
2023/10/21 04:59:36;;;;;;;0.93;0.20;;;;;;;13.99;96.58;149607.84;4991870;28;20272;-61
2023/10/21 05:02:03;;;;;;;0.70;0.50;;;;;;;14.04;96.11;149620.34;4996556;28;20236;-60
2023/10/21 05:04:30;;;;;;;1.80;0.30;;;;;;;14.05;96.41;149622.81;4996325;28;20287;-61
2023/10/21 05:06:58;;;;;;;0.53;0.30;;;;;;;14.08;96.54;149629.03;4995483;28;20955;-61
2023/10/21 05:09:25;;;;;;;0.77;0.40;;;;;;;14.09;95.69;149631.53;4998146;28;20309;-61
2023/10/21 05:11:51;;;;;;;0.60;0.20;;;;;;;14.16;95.26;149649.03;4995105;28;20585;-61
2023/10/21 05:14:18;;;;;;;0.80;0.20;;;;;;;14.13;95.50;149642.81;4997691;28;20226;-60
2023/10/21 05:16:46;;;;;;;1.03;0.20;;;;;;;14.17;95.50;149651.53;4998113;28;20851;-61
2023/10/21 05:19:12;;;;;;;1.43;0.20;;;;;;;14.25;93.83;149671.50;4999265;28;20279;-60
2023/10/21 05:21:39;;;;;;;0.57;0.30;;;;;;;14.30;93.90;149683.97;4993828;28;20579;-60
2023/10/21 05:24:08;;;;;;;0.40;0.30;;;;;;;14.28;93.86;149679.00;4998559;28;20229;-60
2023/10/21 05:26:34;;;;;;;1.27;0.30;;;;;;;14.28;93.32;149679.00;4994962;28;20229;-61
2023/10/21 05:29:01;;;;;;;1.00;0.27;;;;;;;14.25;94.41;149670.28;4996484;28;20232;-61
2023/10/21 05:31:27;;;;;;;0.53;0.20;;;;;;;14.19;94.88;149656.50;4996477;28;20234;-60
2023/10/21 05:33:57;;;;;;;0.67;0.30;;;;;;;14.19;94.61;149656.50;4996397;28;20313;-61
2023/10/21 05:36:24;;;;;;;0.50;0.20;;;;;;;14.25;94.07;149670.28;5000063;28;20223;-61
2023/10/21 05:38:50;;;;;;;0.40;0.20;;;;;;;14.19;93.28;149655.28;4997331;28;20217;-61
2023/10/21 05:41:18;;;;;;;1.30;0.20;;;;;;;14.16;94.06;149650.28;4998071;28;20580;-61
2023/10/21 05:43:46;;;;;;;1.13;0.20;;;;;;;14.16;93.98;149650.28;4993693;28;20233;-61
2023/10/21 05:46:12;;;;;;;1.97;0.30;;;;;;;14.24;93.39;149667.78;4996104;28;20574;-61
2023/10/21 05:48:39;;;;;;;1.60;0.30;;;;;;;14.20;93.85;149657.78;4996112;28;20240;-61
2023/10/21 05:51:06;;;;;;;1.13;0.30;;;;;;;14.19;94.35;149656.50;4996853;28;20229;-60
2023/10/21 05:53:33;;;;;;;1.07;0.23;;;;;;;14.20;93.46;149659.00;4997958;28;20218;-60
2023/10/21 05:55:59;;;;;;;1.60;0.20;;;;;;;14.18;94.09;149654.03;4997642;28;20239;-61
2023/10/21 05:58:27;;;;;;;2.23;0.40;;;;;;;14.19;93.89;149655.28;4995949;28;20409;-61
2023/10/21 06:00:54;;;;;;;2.37;0.30;;;;;;;14.23;93.25;149665.28;4995420;28;20623;-61
2023/10/21 06:03:21;;;;;;;0.20;0.20;;;;;;;14.18;93.52;149654.03;4998142;28;20232;-60
2023/10/21 06:05:48;;;;;;;2.20;0.30;;;;;;;14.22;93.22;149664.00;4995854;28;20217;-61
2023/10/21 06:08:14;;;;;;;0.37;0.37;;;;;;;14.19;93.76;149656.50;4997902;28;20233;-61
2023/10/21 06:10:44;;;;;;;1.17;0.30;;;;;;;14.14;93.80;149645.31;4994844;28;20263;-61
2023/10/21 06:13:11;;;;;;;1.17;0.30;;;;;;;14.16;92.22;149649.03;5006060;28;20230;-62
2023/10/21 06:15:39;;;;;;;0.87;0.37;;;;;;;14.16;93.08;149649.03;4995307;28;20754;-61
2023/10/21 06:18:06;;;;;;;0.63;0.40;;;;;;;14.23;92.21;149666.50;5000031;28;20241;-61
2023/10/21 06:20:33;;;;;;;0.70;0.23;;;;;;;14.17;92.23;149652.78;5001343;28;20724;-61
2023/10/21 06:23:00;;;;;;;2.50;0.30;;;;;;;14.17;91.93;149651.53;4998515;28;20229;-61
2023/10/21 06:25:26;;;;;;;2.00;0.20;;;;;;;14.09;91.63;149632.81;4998596;28;20221;-62
2023/10/21 06:27:53;;;;;;;0.90;0.30;;;;;;;14.07;90.78;149627.81;5013710;28;20232;-62
2023/10/21 06:30:19;;;;;;;0.80;0.30;;;;;;;14.03;91.13;149617.84;5002986;28;20252;-62
2023/10/21 06:32:53;;;;;;;1.43;0.40;;;;;;;13.93;92.31;149594.09;4998345;28;20230;-62
2023/10/21 06:35:20;;;;;;;0.30;0.20;;;;;;;13.87;91.80;149580.38;5001963;28;20240;-62
2023/10/21 06:37:52;;;;;;;0.70;0.30;;;;;;;13.90;92.02;149586.59;5002049;28;20243;-62
2023/10/21 06:40:18;;;;;;;1.80;0.17;;;;;;;13.95;91.23;149599.09;4998995;28;20947;-63
2023/10/21 06:42:45;;;;;;;0.57;0.27;;;;;;;13.96;91.49;149601.59;4999186;28;20223;-63
2023/10/21 06:45:12;;;;;;;0.27;0.20;;;;;;;13.96;90.45;149601.59;5003573;28;20638;-63
2023/10/21 06:47:38;;;;;;;0.50;0.20;;;;;;;13.95;90.35;149597.88;4999734;28;20235;-63
2023/10/21 06:50:07;;;;;;;0.97;0.30;;;;;;;13.97;89.73;149604.09;5002291;28;20708;-62
2023/10/21 06:52:34;;;;;;;1.23;0.33;;;;;;;13.88;90.20;149582.88;4997158;28;20213;-61
2023/10/21 06:55:00;;;;;;;2.67;0.30;;;;;;;13.87;89.61;149579.13;4997301;28;20235;-62
2023/10/21 06:57:27;;;;;;;1.77;0.30;;;;;;;13.86;89.83;149576.63;5000624;28;20217;-62
2023/10/21 06:59:53;;;;;;;0.77;0.30;;;;;;;13.88;89.52;149582.88;4994998;28;20684;-63
2023/10/21 07:02:20;;;;;;;1.07;0.20;;;;;;;13.92;90.11;149591.59;5001863;28;20785;-63
2023/10/21 07:04:47;;;;;;;1.47;0.50;;;;;;;13.99;89.32;149609.06;4996873;28;20308;-62
2023/10/21 07:07:15;;;;;;;3.07;0.40;;;;;;;14.01;88.14;149612.84;5002090;28;20585;-62
2023/10/21 07:09:42;;;;;;;3.23;0.40;;;;;;;13.96;90.01;149600.38;4998018;28;20747;-63
2023/10/21 07:12:11;;;;;;;3.77;1.20;;;;;;;13.96;88.78;149600.38;4997724;28;20236;-62
2023/10/21 07:14:37;;;;;;;0.60;0.40;;;;;;;14.00;87.78;149610.34;4999671;28;20216;-62
2023/10/21 07:17:05;;;;;;;0.67;0.20;;;;;;;14.09;87.39;149631.53;5004200;28;20232;-62
2023/10/21 07:19:32;;;;;;;0.40;0.30;;;;;;;14.24;87.01;149669.00;5001161;28;20707;-62
2023/10/21 07:21:58;;;;;;;3.67;1.63;;;;;;;14.26;86.67;149674.00;4999586;28;20229;-62
2023/10/21 07:24:26;;;;;;;3.40;1.90;;;;;;;14.28;85.21;149679.00;4999961;28;20243;-63
2023/10/21 07:26:53;;;;;;;2.40;0.30;;;;;;;14.37;85.20;149698.97;4998593;28;20564;-62
2023/10/21 07:29:19;;;;;;;3.13;0.30;;;;;;;14.19;84.73;149656.50;5003087;28;20236;-62
2023/10/21 07:31:46;;;;;;;0.47;0.20;;;;;;;14.24;85.36;149669.00;4997212;28;20245;-61
2023/10/21 07:34:13;;;;;;;0.63;0.40;;;;;;;14.18;84.06;149654.03;4998765;28;20241;-62
2023/10/21 07:36:39;;;;;;;2.43;0.47;;;;;;;14.31;83.67;149686.47;4996192;28;20236;-62
2023/10/21 07:39:06;;;;;;;1.07;0.40;;;;;;;14.31;84.53;149686.47;5000062;28;20249;-62
2023/10/21 07:41:34;;;;;;;1.03;0.20;;;;;;;14.38;83.46;149701.47;4999462;28;20226;-63
2023/10/21 07:44:01;;;;;;;1.20;0.40;;;;;;;14.21;83.84;149660.28;4995411;28;20243;-62
2023/10/21 07:46:28;;;;;;;0.87;0.33;;;;;;;14.44;82.07;149716.44;4997263;28;20870;-62
2023/10/21 07:48:56;;;;;;;1.07;0.40;;;;;;;14.50;82.70;149731.44;4995790;28;20230;-62
2023/10/21 07:51:23;;;;;;;1.20;0.30;;;;;;;14.55;81.22;149743.91;4997654;28;20241;-63
2023/10/21 07:53:50;;;;;;;1.30;0.40;;;;;;;14.58;81.51;149750.13;4995983;28;20222;-63
2023/10/21 07:56:16;;;;;;;0.73;0.23;;;;;;;14.59;80.74;149752.63;5001121;28;20295;-63
2023/10/21 07:58:44;;;;;;;1.73;0.50;;;;;;;14.63;80.03;149762.63;4995662;28;20791;-62
2023/10/21 08:01:11;;;;;;;1.20;0.60;;;;;;;14.66;81.19;149770.13;4997752;28;20229;-59
2023/10/21 08:03:38;;;;;;;2.17;0.53;;;;;;;14.59;81.95;149752.63;4994635;28;20218;-61
2023/10/21 08:06:07;;;;;;;0.87;0.60;;;;;;;14.53;81.75;149737.66;4999919;28;20327;-62
2023/10/21 08:08:34;;;;;;;1.47;0.50;;;;;;;14.65;80.84;149766.41;4998423;28;20222;-62
2023/10/21 08:11:01;;;;;;;2.60;0.60;;;;;;;14.60;81.00;149755.13;4994069;28;20234;-62
2023/10/21 08:13:28;;;;;;;1.37;0.60;;;;;;;14.52;82.75;149736.41;4999136;28;20683;-62
2023/10/21 08:15:57;;;;;;;0.80;0.40;;;;;;;14.59;81.12;149752.63;4992674;28;20241;-62
2023/10/21 08:18:24;;;;;;;2.33;0.40;;;;;;;14.53;82.84;149737.66;5000265;28;20221;-63
2023/10/21 08:20:50;;;;;;;1.93;0.40;;;;;;;14.54;82.97;149740.16;4996609;28;20218;-63
2023/10/21 08:23:17;;;;;;;1.57;0.50;;;;;;;14.75;82.39;149791.41;4997879;28;20536;-63
2023/10/21 08:25:44;;;;;;;1.50;0.60;;;;;;;14.87;81.19;149821.34;4997462;28;20211;-63
2023/10/21 08:28:11;;;;;;;3.23;0.70;;;;;;;14.98;83.90;149846.31;4997286;28;20338;-62
2023/10/21 08:30:38;;;;;;;1.63;0.50;;;;;;;15.17;81.65;149893.78;4996113;28;20226;-62
2023/10/21 08:33:07;;;;;;;1.93;0.60;;;;;;;15.21;80.01;149902.56;4997168;28;20297;-63
2023/10/21 08:35:33;;;;;;;1.70;0.60;;;;;;;15.31;80.36;149926.28;5000776;28;20291;-63
2023/10/21 08:38:00;;;;;;;1.50;0.50;;;;;;;15.48;80.70;149967.47;4989616;28;20257;-62
2023/10/21 08:40:27;;;;;;;1.23;0.60;;;;;;;15.35;80.49;149936.25;4998313;28;20265;-63
2023/10/21 08:42:54;;;;;;;3.97;0.47;;;;;;;15.34;80.90;149935.03;4992120;28;20232;-63
2023/10/21 08:45:21;;;;;;;3.53;0.50;;;;;;;15.30;81.18;149923.78;4999790;28;20246;-62
2023/10/21 08:47:52;;;;;;;3.23;0.83;;;;;;;15.31;80.76;149927.53;4990961;28;20303;-62
2023/10/21 08:50:21;;;;;;;4.23;0.77;;;;;;;15.29;82.14;149921.28;4998472;28;20237;-62
2023/10/21 08:52:54;;;;;;;2.20;0.87;;;;;;;15.32;81.17;149930.03;4998185;28;20699;-65
2023/10/21 08:55:21;;;;;;;4.27;0.90;;;;;;;15.34;81.13;149935.03;4997141;28;20328;-63
2023/10/21 08:57:53;;;;;;;4.37;0.87;;;;;;;15.23;83.06;149907.56;4993462;28;20247;-62
2023/10/21 09:00:20;;;;;;;1.80;0.90;;;;;;;15.55;82.05;149983.75;5001067;28;20239;-63
2023/10/21 09:02:52;;;;;;;1.37;0.60;;;;;;;15.68;79.60;150014.97;4995038;28;20574;-64
2023/10/21 09:05:20;;;;;;;2.73;0.70;;;;;;;15.92;78.67;150075.00;5002526;28;20232;-63
2023/10/21 09:07:52;;;;;;;2.07;0.60;;;;;;;15.94;78.07;150080.00;4995192;28;20227;-62
2023/10/21 09:10:20;;;;;;;2.60;0.53;;;;;;;15.92;79.26;150073.72;5002886;28;20227;-61
2023/10/21 09:12:52;;;;;;;3.77;0.50;;;;;;;15.66;76.27;150011.25;4995845;28;20236;-63
2023/10/21 09:15:21;;;;;;;1.73;0.47;;;;;;;15.83;76.42;150051.22;4996523;28;20599;-63
2023/10/21 09:17:53;;;;;;;3.63;0.67;;;;;;;16.16;77.31;150131.22;4993801;28;20248;-62
2023/10/21 09:20:27;;;;;;;1.93;0.67;;;;;;;16.09;74.30;150115.00;4996613;28;20241;-64
2023/10/21 09:22:53;;;;;;;3.70;0.60;;;;;;;16.24;74.87;150151.22;4996269;28;20222;-62
2023/10/21 09:25:23;;;;;;;2.73;0.60;;;;;;;15.81;77.61;150046.22;5002980;28;20719;-63
2023/10/21 09:27:54;;;;;;;2.17;0.60;;;;;;;16.01;76.23;150095.00;4996313;28;20225;-63
2023/10/21 09:30:22;;;;;;;4.53;0.93;;;;;;;16.34;71.00;150176.22;5002462;28;20260;-62
2023/10/21 09:32:52;;;;;;;1.67;0.50;;;;;;;16.33;71.29;150173.72;4996410;28;20323;-62
2023/10/21 09:35:25;;;;;;;2.50;0.40;;;;;;;16.30;71.78;150165.00;4998586;28;20227;-63
2023/10/21 09:37:52;;;;;;;1.30;0.20;;;;;;;16.81;64.96;150288.75;4993026;28;20222;-62
2023/10/21 09:40:20;;;;;;;1.53;0.60;;;;;;;16.99;64.01;150331.25;4997008;28;20238;-62
2023/10/21 09:42:53;;;;;;;2.83;0.50;;;;;;;16.91;62.90;150312.47;4996962;28;20235;-62
2023/10/21 09:45:21;;;;;;;1.33;0.50;;;;;;;16.50;66.53;150213.72;4998115;28;20239;-63
2023/10/21 09:47:55;;;;;;;2.47;0.40;;;;;;;16.57;65.78;150229.94;4997873;28;20313;-62
2023/10/21 09:50:25;;;;;;;2.17;0.40;;;;;;;16.32;66.96;150170.00;5000922;28;20237;-63
2023/10/21 09:52:56;;;;;;;2.73;0.50;;;;;;;16.40;65.76;150190.00;4991401;28;21032;-62
2023/10/21 09:55:25;;;;;;;3.57;0.53;;;;;;;16.29;67.60;150163.72;4998463;28;20330;-62
2023/10/21 09:57:54;;;;;;;1.40;0.50;;;;;;;15.80;66.34;150044.97;4995908;28;20218;-62
2023/10/21 10:00:21;;;;;;;9.67;0.70;;;;;;;15.90;65.19;150068.78;4997645;28;20223;-62
2023/10/21 10:02:54;;;;;;;1.77;0.40;;;;;;;15.84;68.09;150053.72;4993572;28;20214;-62
2023/10/21 10:05:21;;;;;;;1.63;0.60;;;;;;;15.90;67.92;150068.78;4994840;28;20224;-62
2023/10/21 10:07:53;;;;;;;3.50;0.63;;;;;;;16.11;66.18;150118.72;4993981;28;20274;-61
2023/10/21 10:10:23;;;;;;;1.70;0.50;;;;;;;16.14;65.07;150126.22;4998309;28;20757;-61
2023/10/21 10:12:58;;;;;;;3.87;0.60;;;;;;;16.11;65.62;150118.72;4993143;28;20235;-61
2023/10/21 10:15:37;;;;;;;1.13;0.30;;;;;;;15.88;67.19;150063.78;4998988;28;20230;-62
2023/10/21 10:18:06;;;;;;;1.80;0.50;;;;;;;16.19;65.92;150138.72;4994735;28;20302;-62
2023/10/21 10:20:33;;;;;;;5.63;0.77;;;;;;;16.41;65.51;150192.50;4995613;28;20252;-62
2023/10/21 10:23:07;;;;;;;2.07;0.50;;;;;;;16.59;64.25;150236.22;4994628;28;20232;-62
2023/10/21 10:25:36;;;;;;;5.00;0.60;;;;;;;16.73;64.92;150269.97;4997180;28;20642;-62
2023/10/21 10:28:07;;;;;;;3.30;0.70;;;;;;;16.18;64.59;150136.22;4997688;28;20230;-63
2023/10/21 10:30:35;;;;;;;2.63;0.40;;;;;;;16.56;63.90;150227.44;4995147;28;20231;-62
2023/10/21 10:33:13;;;;;;;2.00;0.50;;;;;;;16.95;63.58;150322.47;4994905;28;20318;-62
2023/10/21 10:35:41;;;;;;;2.57;0.50;;;;;;;17.06;60.62;150348.78;4991030;28;20570;-63
2023/10/21 10:38:25;;;;;;;2.07;0.50;;;;;;;17.02;63.33;150338.75;4999347;28;20233;-63
2023/10/21 10:40:53;;;;;;;3.73;0.50;;;;;;;16.55;61.98;150224.94;4997889;28;20316;-62
2023/10/21 10:43:20;;;;;;;1.63;0.30;;;;;;;17.08;59.91;150353.78;4999060;28;20241;-62
2023/10/21 10:45:47;;;;;;;2.50;0.83;;;;;;;17.50;58.12;150456.34;4998802;28;20714;-62
2023/10/21 10:48:15;;;;;;;5.90;0.50;;;;;;;17.40;60.04;150431.31;5002315;28;20794;-63
2023/10/21 10:50:41;;;;;;;3.17;0.50;;;;;;;17.68;58.46;150498.88;4992679;28;20280;-62
2023/10/21 10:53:15;;;;;;;2.93;0.43;;;;;;;17.06;61.09;150348.78;4997759;28;20593;-62
2023/10/21 10:55:46;;;;;;;3.70;0.47;;;;;;;17.03;61.62;150342.53;4991537;28;20235;-63
2023/10/21 10:58:13;;;;;;;3.50;0.40;;;;;;;17.18;60.78;150377.56;4994421;28;20245;-63
2023/10/21 11:00:40;;;;;;;1.27;0.33;;;;;;;17.17;59.22;150375.06;4995884;28;20231;-60
2023/10/21 11:03:07;;;;;;;2.87;0.60;;;;;;;17.11;59.87;150362.53;4997812;28;20243;-62
2023/10/21 11:05:35;;;;;;;2.17;0.40;;;;;;;17.06;59.60;150348.78;5000386;28;20235;-63
2023/10/21 11:08:01;;;;;;;2.40;0.50;;;;;;;17.50;60.33;150455.06;4996904;28;20234;-63
2023/10/21 11:10:28;;;;;;;1.10;0.20;;;;;;;17.56;59.24;150471.34;5001648;28;20226;-63
2023/10/21 11:12:56;;;;;;;2.93;0.53;;;;;;;17.15;61.10;150371.28;4998174;28;21566;-63
2023/10/21 11:15:23;;;;;;;3.47;0.40;;;;;;;17.40;61.31;150431.31;5003087;28;20230;-62
2023/10/21 11:17:53;;;;;;;1.13;0.40;;;;;;;17.67;59.63;150496.38;4997080;28;20226;-63
2023/10/21 11:20:20;;;;;;;1.70;0.33;;;;;;;17.91;58.30;150553.91;4998875;28;20621;-62
2023/10/21 11:22:53;;;;;;;3.03;0.50;;;;;;;17.55;58.64;150468.84;4996729;28;20238;-62
2023/10/21 11:25:20;;;;;;;2.13;0.40;;;;;;;17.78;57.47;150522.63;4999420;28;20243;-62
2023/10/21 11:27:52;;;;;;;0.83;0.40;;;;;;;17.76;57.83;150518.88;4996489;28;20239;-63